Close

Questo sito utlizza cookie. Può leggere come li usiamo nella nostra Privacy Policy.

Ronchi Tower
Ronchi Tower

From Facebook

METAR & TAF

2017/12/18 08:50 LIPQ 180850Z 02003KT 350V060 CAVOK 02/M02 Q1024
2017/12/18 06:21 TAF LIPQ 180500Z 1806/1906 03006KT 9999 FEW030
2017/12/18 08:50 LIPZ 180850Z 01005KT CAVOK 02/M03 Q1024 NOSIG
2017/12/18 06:21 TAF LIPZ 180500Z 1806/1912 02006KT 9999 FEW030
2017/12/18 08:20 LIPH 180820Z VRB01KT CAVOK 00/M04 Q1023
2017/12/18 06:21 TAF LIPH 180500Z 1806/1906 02006KT 9999 FEW030
2017/12/18 08:50 LIRF 180850Z 04007KT CAVOK 07/M02 Q1023 NOSIG
2017/12/18 06:25 TAF LIRF 180500Z 1806/1912 01008KT 9999 FEW030
2017/12/18 08:50 LIML 180850Z 00000KT 9999 SCT090 M00/M05 Q1023 NOSIG
2017/12/18 06:21 TAF LIML 180500Z 1806/1906 07005KT CAVOK
2017/12/18 08:50 EDDM 180850Z 19005KT 150V230 9999 BKN030 M00/M04 Q1022 R88/290095 NOSIG
2017/12/18 06:27 TAF EDDM 180500Z 1806/1912 24005KT 9999 BKN040 BECMG 1808/1810 12005KT BECMG 1906/1909 25005KT
2017/12/18 08:50 EGSS 180850Z AUTO 32006KT 9999 NCD 02/01 Q1028
2017/12/18 06:15 TAF EGSS 180453Z 1806/1912 32005KT 9999 FEW030 PROB30 TEMPO 1806/1810 8000 BECMG 1814/1816 6000 BECMG 1816/1819 1200 BR BECMG 1819/1822 0300 FG VV/// TEMPO 1822/1910 FZFG PROB30 TEMPO 1822/1912 1500 BR SCT001 BECMG 1911/1912 2000 BKN002

FlightRadar24

Radar Meteo

Traffic data

Ottobre 2017

Passeggeri: 69561+3,6% (rank: 24)
Nazionali 48093 +19,9% 22°
Internazionali 21207 -20,6% 26°

Movimenti: 1298-17,3% (rank: 22)
Tot commerciale 714 -9,5% 24°
Aviazione generale 584 -25,2%

Cargo (tons): 5,9-79,7% (rank: 24)

Gennaio - Ottobre 2017

Passeggeri: 669641+9,0% (rank: 24)
Nazionali 435808 +17,6% 22°
Internazionali 230987 -4,2% 27°

Movimenti: 13378+1,9% (rank: 23)
Tot commerciale 7428 +5,6% 24°
Aviazione generale 5950 -2,5%

Cargo (tons): 211,1-45,8% (rank: 21)

Photo

Eurocopter EC-145
Eurocopter EC-145
Distinct views: 12
Polo Intermodale
Polo Intermodale
Distinct views: 45
Eurocopter EC-145
Eurocopter EC-145
Distinct views: 122
Embraer EMB-145EU
Embraer EMB-145EU
Total views: 355